Naval Surface Weapons Center, Virginia
Current Conditions -  °F | °C
As of 9:56 PM on Sunday 23 Nov 2014 (Local Time) from KNYG Reporting Station
Light Rain Light Rain  
Wind Chill: 50°   Ceiling: 2700
Heat Index: 50°   Visibility: 9mi
Dew Point: 48°   Wind: 3mph
Humidity: 93%   Direction: 170°S
Pressure: 29.93"   Gusts: NA
Location:  38.3387°N, 77.0429°W
Report Text: KNYG 240256Z AUTO 17003KT 9SM -RA FEW009 BKN027 OVC032 10/09 A2993 RMK AO2 RAB0158E29B45 SLP135 P0001 60001 T01000089 58041 $
Loading
Personal Weather Stations






























Interactive Weather Map New forecast layout! Learn more

10-Day Weather Forecast

Advertisements
Track Severe Weather on mobile